Aérodrome :
LOGIN :

S'inscrire | Disclaimer

   EN    FR    IT 

 










Légende :    VFR   VFR Marginal   IFR   IFR Intensif   IFR Très Intensif
Visi : 
Plafond : 
>= 8 km
>= 3000ft
5 à 8 km
1000 à 3000 ft
1500m à 5 km
500 à 1000 ft
800 à 1500m
200 à 500 ft
< 800m
< 200 ft
Symboles :   Orages  Brouillard  Fortes neiges  Fortes précipitations  Vent > 20 kt
SIGMETs :   Divers  Orages  Givrage  Turbulence  Onde Orograph.  Cendres Volcan.






- Altitude de l'aérodrome : 386 ft
- Code IATA : QOE


ETNN - Nörvenich Airforce Base

DERNIER METAR :
  • 301633Z 26024KT 6000 -TSRA SCT010 SCT020CB BKN070 18/16 Q1010 RESHRA WHT

METARs EXPIRÉS :
  • 301620Z 25018G33KT 2000 TSRA SCT010 BKN020CB BKN060 18/17 Q1010 YLO
  • 301611Z 21020G34KT 0400 +TSRA OVC020CB 19/18 Q1010 RED
  • 301602Z 25021G33KT 3500 TSRA BKN020CB BKN070 21/18 Q1009 YLO
  • 301555Z 26017G33KT 7000 -TSRA SCT040CB SCT060 BKN070 22/17 Q1008 WHT
  • 301534Z 28004KT 9999 -TSRA SCT050CB BKN080 BKN120 27/15 Q1007 BLU
  • 301500Z 35005KT 9999 VCSH SCT050CB SCT120 BKN300 28/15 Q1008 BLU+FCST CNL
  • 301420Z 01005KT 9999 FEW050 SCT150 BKN300 28/15 Q1009 BLU+BLU+

TAF TAF ETNN
Valide du 30 à 14h jusqu'au 30 à 23h UTC


301356Z 3014/3023 27008KT 9999 NSW SCT050
PROB30 3014/3023 VRB20G45KT 1000 +TSRAGR BKN020CB BY ETGL



MET'MAP, la Météo Aéronautique d'un coup d'oeil ! - Copyright ORBIFLY Décembre 2007 - Disclaimer

ORBIFLY MET'MAP TEAM :

Programmation & Développement : Alexandra Zaïnal
Sur une idée originale de : Baudouin d'Aumeries
Soutien technique & logistique : Manuel Goepfert
Assistance : Marc-Olivier Méhu




SOURCES & CREDITS :

   NOAA